createdAt,value
2023-03-01T00:01:56.577Z,56.71
2023-03-01T00:04:29.895Z,56.63
2023-03-01T00:07:03.580Z,56.91
2023-03-01T00:09:38.695Z,57.06
2023-03-01T00:25:53.566Z,57.10
2023-03-01T00:28:27.023Z,56.96
2023-03-01T00:31:00.538Z,56.87
2023-03-01T00:33:34.339Z,56.93
2023-03-01T00:36:09.838Z,56.68
2023-03-01T00:38:45.700Z,56.76
2023-03-01T00:50:36.496Z,57.07
2023-03-01T00:53:16.516Z,57.26
2023-03-01T00:55:50.197Z,57.15
2023-03-01T00:58:23.557Z,57.36
2023-03-01T01:00:57.000Z,57.24
2023-03-01T01:03:35.556Z,57.17
2023-03-01T01:17:04.551Z,56.88
2023-03-01T01:19:37.994Z,56.85
2023-03-01T01:22:11.557Z,57.21
2023-03-01T01:24:44.810Z,57.18
2023-03-01T01:27:24.567Z,57.26
2023-03-01T01:29:58.026Z,57.30
2023-03-01T01:46:26.544Z,57.49
2023-03-01T01:49:04.669Z,57.66
2023-03-01T01:51:49.541Z,57.52
2023-03-01T01:54:30.295Z,57.31
2023-03-01T01:57:23.498Z,57.37
2023-03-01T02:00:05.233Z,57.51
2023-03-01T02:10:24.466Z,57.18
2023-03-01T02:13:01.507Z,57.66
2023-03-01T02:15:43.570Z,57.62
2023-03-01T02:18:20.904Z,57.50
2023-03-01T02:21:33.488Z,57.32
2023-03-01T02:24:25.117Z,57.43
2023-03-01T02:37:25.503Z,57.71
2023-03-01T02:40:12.164Z,57.84
2023-03-01T02:42:54.258Z,57.73
2023-03-01T02:45:34.593Z,57.48
2023-03-01T02:48:08.475Z,57.71
2023-03-01T02:51:14.550Z,57.85
2023-03-01T02:54:08.052Z,57.49
2023-03-01T03:04:02.507Z,57.47
2023-03-01T03:06:36.924Z,57.38
2023-03-01T03:09:12.475Z,57.44
2023-03-01T03:11:47.158Z,57.72
2023-03-01T03:14:23.480Z,57.44
2023-03-01T03:16:56.954Z,57.69
2023-03-01T03:19:30.533Z,57.36
2023-03-01T03:32:42.534Z,57.86
2023-03-01T03:35:15.733Z,57.92
2023-03-01T03:37:56.491Z,57.79
2023-03-01T03:40:35.760Z,57.82
2023-03-01T03:43:19.261Z,57.80
2023-03-01T03:59:56.441Z,57.64
2023-03-01T04:02:46.575Z,57.85
2023-03-01T04:05:20.307Z,57.86
2023-03-01T04:07:53.500Z,57.91
2023-03-01T04:10:27.848Z,57.92
2023-03-01T04:13:01.483Z,58.02
2023-03-01T04:26:13.476Z,57.73
2023-03-01T04:28:47.409Z,57.71
2023-03-01T04:31:23.552Z,57.87
2023-03-01T04:33:57.066Z,58.16
2023-03-01T04:36:34.778Z,58.24
2023-03-01T04:39:09.032Z,58.23
2023-03-01T04:51:59.483Z,57.85
2023-03-01T04:54:41.458Z,57.84
2023-03-01T04:57:14.783Z,58.20
2023-03-01T04:59:48.464Z,57.95
2023-03-01T05:02:21.915Z,58.17
2023-03-01T05:04:55.502Z,58.00
2023-03-01T05:18:07.477Z,58.29
2023-03-01T05:20:40.871Z,58.22
2023-03-01T05:23:14.468Z,58.05
2023-03-01T05:25:47.829Z,58.06
2023-03-01T05:28:21.515Z,58.01
2023-03-01T05:30:55.415Z,57.82
2023-03-01T05:33:32.439Z,58.07
2023-03-01T05:46:42.485Z,58.21
2023-03-01T05:49:18.131Z,58.45
2023-03-01T05:51:58.182Z,58.18
2023-03-01T05:54:31.835Z,58.57
2023-03-01T05:57:05.452Z,58.14
2023-03-01T05:59:38.837Z,58.02
2023-03-01T06:12:29.408Z,58.12
2023-03-01T06:15:12.456Z,58.31
2023-03-01T06:17:47.408Z,58.20
2023-03-01T06:20:24.766Z,57.99
2023-03-01T06:22:58.684Z,58.01
2023-03-01T06:25:34.441Z,57.96
2023-03-01T06:38:53.429Z,58.32
2023-03-01T06:41:26.801Z,58.40
2023-03-01T06:44:00.449Z,58.24
2023-03-01T06:46:33.888Z,58.30
2023-03-01T06:49:07.379Z,58.35
2023-03-01T06:51:40.664Z,58.04
2023-03-01T06:54:17.182Z,58.27
2023-03-01T07:04:47.335Z,58.32
2023-03-01T07:07:27.383Z,58.46
2023-03-01T07:10:03.187Z,58.56
2023-03-01T07:12:36.361Z,58.59
2023-03-01T07:15:11.053Z,58.67
2023-03-01T07:17:44.415Z,58.82
2023-03-01T07:20:18.644Z,58.64
2023-03-01T07:33:08.420Z,59.05
2023-03-01T07:35:48.421Z,59.00
2023-03-01T07:38:21.611Z,58.93
2023-03-01T07:40:55.368Z,58.50
2023-03-01T07:43:29.777Z,58.76
2023-03-01T07:59:45.592Z,59.28
2023-03-01T08:02:18.629Z,59.26
2023-03-01T08:04:59.861Z,59.08
2023-03-01T08:07:34.178Z,59.41
2023-03-01T08:10:07.348Z,59.63
2023-03-01T08:12:40.742Z,59.36
2023-03-01T08:15:17.349Z,59.39
2023-03-01T08:25:03.346Z,59.65
2023-03-01T08:27:43.356Z,59.60
2023-03-01T08:30:18.977Z,59.65
2023-03-01T08:32:52.528Z,59.98
2023-03-01T08:35:25.713Z,60.00
2023-03-01T08:37:59.326Z,59.89
2023-03-01T08:40:32.606Z,60.06
2023-03-01T08:53:22.340Z,59.98
2023-03-01T08:56:02.324Z,60.05
2023-03-01T08:58:36.128Z,59.99
2023-03-01T09:01:16.024Z,59.77
2023-03-01T09:03:49.753Z,59.84
2023-03-01T09:20:05.685Z,59.54
2023-03-01T09:22:38.641Z,59.55
2023-03-01T09:25:13.357Z,59.25
2023-03-01T09:27:46.620Z,59.30
2023-03-01T09:30:21.426Z,59.67
2023-03-01T09:32:56.341Z,59.25
2023-03-01T09:35:31.400Z,59.59
2023-03-01T09:45:31.320Z,59.84
2023-03-01T09:48:15.329Z,59.41
2023-03-01T09:50:52.383Z,59.57
2023-03-01T09:53:39.330Z,59.01
2023-03-01T09:56:22.611Z,58.96
2023-03-01T09:59:23.395Z,59.17
2023-03-01T10:12:42.345Z,59.41
2023-03-01T10:15:26.022Z,59.35
2023-03-01T10:18:17.372Z,58.99
2023-03-01T10:20:56.959Z,58.50
2023-03-01T10:23:41.330Z,58.27
2023-03-01T10:40:18.297Z,56.81
2023-03-01T10:42:58.336Z,56.73
2023-03-01T10:45:36.336Z,56.81
2023-03-01T10:48:21.341Z,56.94
2023-03-01T10:51:08.229Z,57.27
2023-03-01T10:53:53.316Z,57.56
2023-03-01T11:07:10.279Z,55.66
2023-03-01T11:09:43.589Z,56.04
2023-03-01T11:12:23.315Z,55.81
2023-03-01T11:14:56.694Z,55.68
2023-03-01T11:17:48.037Z,55.70
2023-03-01T11:20:35.069Z,55.40
2023-03-01T11:32:41.479Z,54.19
2023-03-01T11:35:28.319Z,54.61
2023-03-01T11:38:20.665Z,54.76
2023-03-01T11:41:08.320Z,54.79
2023-03-01T11:43:52.802Z,54.69
2023-03-01T12:00:56.325Z,53.31
2023-03-01T12:03:47.222Z,53.68
2023-03-01T12:06:56.080Z,53.29
2023-03-01T12:10:05.363Z,52.97
2023-03-01T12:13:11.023Z,52.85
2023-03-01T12:26:34.332Z,51.83
2023-03-01T12:29:24.682Z,51.16
2023-03-01T12:32:36.617Z,50.42
2023-03-01T12:35:36.759Z,50.00
2023-03-01T12:38:48.412Z,50.11
2023-03-01T12:52:39.312Z,49.89
2023-03-01T12:55:29.393Z,50.66
2023-03-01T12:58:34.148Z,49.91
2023-03-01T13:01:26.335Z,49.43
2023-03-01T13:04:30.328Z,50.13
2023-03-01T13:21:10.272Z,45.95
2023-03-01T13:23:55.276Z,45.65
2023-03-01T13:26:28.660Z,45.55
2023-03-01T13:29:04.293Z,46.14
2023-03-01T13:32:01.305Z,45.67
2023-03-01T13:34:53.310Z,46.20
2023-03-01T13:48:10.300Z,43.32
2023-03-01T13:50:52.084Z,41.63
2023-03-01T13:53:38.328Z,41.04
2023-03-01T13:56:18.759Z,39.70
2023-03-01T13:59:04.296Z,38.24
2023-03-01T14:12:51.315Z,36.90
2023-03-01T14:15:34.810Z,38.01
2023-03-01T14:18:23.303Z,38.80
2023-03-01T14:20:56.643Z,38.90
2023-03-01T14:23:32.594Z,39.85
2023-03-01T14:26:05.658Z,40.35
2023-03-01T14:28:45.684Z,41.34
2023-03-01T14:41:56.289Z,41.24
2023-03-01T14:44:26.257Z,40.91
2023-03-01T14:47:06.287Z,40.14
2023-03-01T14:49:39.873Z,39.73
2023-03-01T14:52:25.290Z,39.09
2023-03-01T14:54:58.780Z,38.31
2023-03-01T15:07:52.257Z,33.32
2023-03-01T15:10:36.289Z,31.88
2023-03-01T15:13:14.505Z,30.31
2023-03-01T15:15:57.313Z,29.66
2023-03-01T15:18:30.908Z,30.51
2023-03-01T15:34:46.289Z,29.54
2023-03-01T15:37:40.837Z,29.97
2023-03-01T15:40:32.424Z,31.06
2023-03-01T15:43:14.360Z,32.19
2023-03-01T15:46:04.317Z,33.90
2023-03-01T15:48:38.554Z,34.09
2023-03-01T16:01:28.260Z,37.71
2023-03-01T16:04:12.318Z,38.23
2023-03-01T16:06:45.504Z,39.38
2023-03-01T16:09:12.261Z,40.57
2023-03-01T16:11:52.282Z,40.59
2023-03-01T16:14:25.580Z,40.36
2023-03-01T16:27:16.272Z,43.81
2023-03-01T16:29:57.563Z,44.48
2023-03-01T16:32:30.666Z,45.93
2023-03-01T16:35:04.276Z,46.41
2023-03-01T16:37:38.753Z,45.88
2023-03-01T16:40:24.282Z,46.64
2023-03-01T16:54:07.286Z,47.90
2023-03-01T16:56:40.665Z,48.65
2023-03-01T16:59:14.261Z,49.04
2023-03-01T17:01:47.553Z,49.50
2023-03-01T17:04:35.286Z,49.93
2023-03-01T17:07:08.524Z,49.12
2023-03-01T17:20:11.265Z,50.58
2023-03-01T17:22:51.268Z,50.03
2023-03-01T17:25:24.572Z,49.78
2023-03-01T17:27:58.268Z,48.96
2023-03-01T17:30:31.786Z,49.07
2023-03-01T17:33:06.159Z,49.55
2023-03-01T17:46:52.268Z,50.65
2023-03-01T17:49:25.605Z,51.21
2023-03-01T17:51:59.263Z,51.20
2023-03-01T17:54:33.255Z,51.27
2023-03-01T17:57:07.278Z,51.59
2023-03-01T17:59:40.505Z,51.52
2023-03-01T18:02:18.301Z,51.37
2023-03-01T18:15:28.415Z,51.35
2023-03-01T18:18:03.715Z,51.28
2023-03-01T18:20:37.289Z,51.37
2023-03-01T18:23:10.607Z,51.58
2023-03-01T18:25:46.262Z,51.62
2023-03-01T18:28:19.666Z,51.40
2023-03-01T18:41:10.230Z,50.88
2023-03-01T18:43:50.265Z,51.01
2023-03-01T18:46:24.190Z,51.25
2023-03-01T18:49:01.238Z,51.48
2023-03-01T18:51:34.891Z,51.49
2023-03-01T19:07:10.259Z,51.47
2023-03-01T19:09:43.653Z,51.51
2023-03-01T19:12:17.254Z,51.40
2023-03-01T19:14:50.597Z,51.51
2023-03-01T19:19:54.553Z,51.63
2023-03-01T19:22:23.264Z,51.42
2023-03-01T19:35:18.206Z,51.01
2023-03-01T19:38:00.245Z,51.11
2023-03-01T19:40:35.616Z,50.71
2023-03-01T19:43:10.065Z,50.34
2023-03-01T19:45:43.593Z,50.26
2023-03-01T19:48:17.246Z,50.13
2023-03-01T20:01:29.273Z,49.63
2023-03-01T20:04:03.945Z,49.96
2023-03-01T20:06:37.232Z,50.29
2023-03-01T20:09:21.162Z,50.40
2023-03-01T20:12:02.237Z,50.45
2023-03-01T20:28:40.824Z,51.27
2023-03-01T20:31:24.227Z,51.57
2023-03-01T20:33:59.423Z,51.80
2023-03-01T20:36:34.764Z,51.79
2023-03-01T20:39:08.897Z,51.89
2023-03-01T20:41:42.229Z,51.83
2023-03-01T20:54:54.234Z,52.18
2023-03-01T20:57:27.469Z,52.14
2023-03-01T21:00:01.205Z,51.96
2023-03-01T21:02:34.648Z,51.59
2023-03-01T21:05:14.229Z,51.58
2023-03-01T21:07:47.510Z,51.80
2023-03-01T21:20:53.212Z,52.15
2023-03-01T21:23:36.224Z,52.38
2023-03-01T21:26:13.244Z,52.50
2023-03-01T21:28:55.228Z,52.53
2023-03-01T21:31:31.683Z,52.45
2023-03-01T21:47:37.226Z,52.53
2023-03-01T21:50:11.807Z,52.44
2023-03-01T21:52:46.521Z,52.74
2023-03-01T21:55:19.571Z,52.86
2023-03-01T21:57:53.226Z,52.69
2023-03-01T22:00:26.948Z,52.46
2023-03-01T22:03:02.293Z,52.42
2023-03-01T22:15:14.198Z,52.41
2023-03-01T22:17:47.628Z,52.97
2023-03-01T22:20:23.228Z,52.98
2023-03-01T22:22:56.439Z,53.08
2023-03-01T22:25:30.206Z,53.42
2023-03-01T22:28:03.956Z,53.14
2023-03-01T22:41:10.185Z,53.55
2023-03-01T22:43:53.197Z,53.47
2023-03-01T22:46:29.148Z,53.48
2023-03-01T22:49:03.201Z,53.43
2023-03-01T22:51:39.575Z,53.54
2023-03-01T22:54:15.057Z,53.28
2023-03-01T22:56:50.462Z,53.32
2023-03-01T23:09:40.169Z,53.45
2023-03-01T23:12:22.221Z,53.79
2023-03-01T23:14:55.452Z,53.60
2023-03-01T23:17:30.232Z,53.36
2023-03-01T23:20:04.240Z,53.63
2023-03-01T23:22:37.181Z,53.58
2023-03-01T23:35:49.259Z,53.60
2023-03-01T23:38:22.415Z,53.39
2023-03-01T23:40:56.201Z,53.64
2023-03-01T23:43:29.432Z,53.95
2023-03-01T23:45:56.218Z,53.74
2023-03-01T23:48:36.194Z,54.08
